sensor_id;sensor_type;location;lat;lon;timestamp;pressure;altitude;pressure_sealevel;temperature;humidity
62333;BME280;48624;49.812;8.562;2022-12-19T00:01:57;101657.28;;;-3.17;92.43
62333;BME280;48624;49.812;8.562;2022-12-19T00:04:22;101656.44;;;-3.14;92.10
62333;BME280;48624;49.812;8.562;2022-12-19T00:06:47;101654.66;;;-3.20;91.97
62333;BME280;48624;49.812;8.562;2022-12-19T00:09:12;101653.72;;;-3.30;93.05
62333;BME280;48624;49.812;8.562;2022-12-19T00:11:39;101656.34;;;-3.27;93.47
62333;BME280;48624;49.812;8.562;2022-12-19T00:14:05;101662.47;;;-3.18;93.14
62333;BME280;48624;49.812;8.562;2022-12-19T00:16:30;101663.78;;;-3.59;93.86
62333;BME280;48624;49.812;8.562;2022-12-19T00:18:57;101652.50;;;-3.66;95.41
62333;BME280;48624;49.812;8.562;2022-12-19T00:21:25;101653.16;;;-3.86;97.16
62333;BME280;48624;49.812;8.562;2022-12-19T00:23:51;101649.75;;;-3.83;97.70
62333;BME280;48624;49.812;8.562;2022-12-19T00:26:18;101655.91;;;-3.69;96.84
62333;BME280;48624;49.812;8.562;2022-12-19T00:28:46;101642.00;;;-3.80;98.34
62333;BME280;48624;49.812;8.562;2022-12-19T00:31:14;101641.41;;;-3.54;97.02
62333;BME280;48624;49.812;8.562;2022-12-19T00:33:40;101640.38;;;-3.69;97.34
62333;BME280;48624;49.812;8.562;2022-12-19T00:36:10;101640.31;;;-3.77;97.06
62333;BME280;48624;49.812;8.562;2022-12-19T00:38:35;101643.78;;;-3.74;98.05
62333;BME280;48624;49.812;8.562;2022-12-19T00:41:13;101639.50;;;-3.71;98.00
62333;BME280;48624;49.812;8.562;2022-12-19T00:43:39;101624.66;;;-3.87;97.99
62333;BME280;48624;49.812;8.562;2022-12-19T00:46:09;101624.03;;;-3.65;98.16
62333;BME280;48624;49.812;8.562;2022-12-19T00:48:35;101623.28;;;-3.51;96.54
62333;BME280;48624;49.812;8.562;2022-12-19T00:51:03;101624.25;;;-3.41;96.10
62333;BME280;48624;49.812;8.562;2022-12-19T00:53:29;101620.69;;;-3.54;96.25
62333;BME280;48624;49.812;8.562;2022-12-19T00:55:55;101625.69;;;-3.70;97.97
62333;BME280;48624;49.812;8.562;2022-12-19T00:58:20;101620.22;;;-3.98;98.64
62333;BME280;48624;49.812;8.562;2022-12-19T01:00:46;101624.63;;;-3.89;99.49
62333;BME280;48624;49.812;8.562;2022-12-19T01:03:11;101631.91;;;-3.55;97.47
62333;BME280;48624;49.812;8.562;2022-12-19T01:05:36;101622.28;;;-3.66;97.23
62333;BME280;48624;49.812;8.562;2022-12-19T01:08:02;101622.69;;;-3.22;95.64
62333;BME280;48624;49.812;8.562;2022-12-19T01:10:27;101619.78;;;-3.58;95.65
62333;BME280;48624;49.812;8.562;2022-12-19T01:12:52;101637.13;;;-3.49;96.30
62333;BME280;48624;49.812;8.562;2022-12-19T01:15:19;101656.13;;;-3.50;96.52
62333;BME280;48624;49.812;8.562;2022-12-19T01:17:46;101639.66;;;-3.57;96.47
62333;BME280;48624;49.812;8.562;2022-12-19T01:20:18;101646.78;;;-3.29;96.97
62333;BME280;48624;49.812;8.562;2022-12-19T01:22:44;101648.06;;;-3.78;97.71
62333;BME280;48624;49.812;8.562;2022-12-19T01:25:10;101652.53;;;-3.63;98.01
62333;BME280;48624;49.812;8.562;2022-12-19T01:27:36;101635.34;;;-3.55;97.72
62333;BME280;48624;49.812;8.562;2022-12-19T01:30:02;101636.56;;;-3.14;96.66
62333;BME280;48624;49.812;8.562;2022-12-19T01:32:28;101629.72;;;-3.04;94.81
62333;BME280;48624;49.812;8.562;2022-12-19T01:34:53;101633.97;;;-3.15;94.89
62333;BME280;48624;49.812;8.562;2022-12-19T01:37:19;101626.31;;;-2.97;94.69
62333;BME280;48624;49.812;8.562;2022-12-19T01:39:45;101623.81;;;-2.89;94.78
62333;BME280;48624;49.812;8.562;2022-12-19T01:42:16;101611.78;;;-2.77;94.15
62333;BME280;48624;49.812;8.562;2022-12-19T01:50:11;101592.78;;;-2.72;94.09
62333;BME280;48624;49.812;8.562;2022-12-19T01:52:38;101591.84;;;-2.83;94.10
62333;BME280;48624;49.812;8.562;2022-12-19T01:55:08;101594.47;;;-2.75;94.63
62333;BME280;48624;49.812;8.562;2022-12-19T01:57:34;101590.22;;;-2.62;94.17
62333;BME280;48624;49.812;8.562;2022-12-19T02:00:00;101592.69;;;-2.87;93.95
62333;BME280;48624;49.812;8.562;2022-12-19T02:02:32;101585.72;;;-2.96;95.23
62333;BME280;48624;49.812;8.562;2022-12-19T02:04:57;101576.22;;;-2.94;95.64
62333;BME280;48624;49.812;8.562;2022-12-19T02:07:25;101584.75;;;-3.09;96.11
62333;BME280;48624;49.812;8.562;2022-12-19T02:09:53;101572.75;;;-2.93;96.00
62333;BME280;48624;49.812;8.562;2022-12-19T02:12:19;101569.31;;;-2.94;96.20
62333;BME280;48624;49.812;8.562;2022-12-19T02:14:45;101580.66;;;-2.74;95.82
62333;BME280;48624;49.812;8.562;2022-12-19T02:17:25;101571.22;;;-2.65;94.85
62333;BME280;48624;49.812;8.562;2022-12-19T02:23:12;101573.53;;;-3.05;97.37
62333;BME280;48624;49.812;8.562;2022-12-19T02:25:57;101583.03;;;-3.04;97.30
62333;BME280;48624;49.812;8.562;2022-12-19T02:28:52;101575.13;;;-3.26;98.29
62333;BME280;48624;49.812;8.562;2022-12-19T02:31:39;101571.75;;;-3.17;98.64
62333;BME280;48624;49.812;8.562;2022-12-19T02:34:58;101568.31;;;-3.10;98.31
62333;BME280;48624;49.812;8.562;2022-12-19T02:37:33;101574.38;;;-3.12;98.67
62333;BME280;48624;49.812;8.562;2022-12-19T02:40:16;101571.13;;;-2.77;97.56
62333;BME280;48624;49.812;8.562;2022-12-19T02:42:47;101565.97;;;-2.68;97.12
62333;BME280;48624;49.812;8.562;2022-12-19T02:45:16;101559.09;;;-2.64;96.85
62333;BME280;48624;49.812;8.562;2022-12-19T02:47:43;101560.00;;;-2.53;96.85
62333;BME280;48624;49.812;8.562;2022-12-19T02:50:11;101558.34;;;-2.41;96.10
62333;BME280;48624;49.812;8.562;2022-12-19T02:55:07;101556.44;;;-2.76;97.70
62333;BME280;48624;49.812;8.562;2022-12-19T03:02:50;101554.75;;;-2.68;99.52
62333;BME280;48624;49.812;8.562;2022-12-19T03:08:07;101548.81;;;-2.44;98.65
62333;BME280;48624;49.812;8.562;2022-12-19T03:10:44;101554.91;;;-2.25;96.98
62333;BME280;48624;49.812;8.562;2022-12-19T03:13:15;101557.50;;;-2.28;96.63
62333;BME280;48624;49.812;8.562;2022-12-19T03:15:43;101549.75;;;-2.14;96.99
62333;BME280;48624;49.812;8.562;2022-12-19T03:18:09;101536.75;;;-2.21;96.82
62333;BME280;48624;49.812;8.562;2022-12-19T03:23:39;101529.88;;;-2.05;95.76
62333;BME280;48624;49.812;8.562;2022-12-19T03:26:15;101526.41;;;-2.01;96.09
62333;BME280;48624;49.812;8.562;2022-12-19T03:29:37;101535.94;;;-2.02;96.02
62333;BME280;48624;49.812;8.562;2022-12-19T03:31:56;101530.75;;;-1.89;95.83
62333;BME280;48624;49.812;8.562;2022-12-19T03:34:51;101533.34;;;-1.89;96.08
62333;BME280;48624;49.812;8.562;2022-12-19T03:37:23;101532.47;;;-1.95;96.45
62333;BME280;48624;49.812;8.562;2022-12-19T03:39:52;101541.13;;;-1.99;96.33
62333;BME280;48624;49.812;8.562;2022-12-19T03:42:20;101542.03;;;-1.79;95.52
62333;BME280;48624;49.812;8.562;2022-12-19T03:45:06;101544.63;;;-1.89;96.15
62333;BME280;48624;49.812;8.562;2022-12-19T03:47:46;101542.03;;;-1.78;95.38
62333;BME280;48624;49.812;8.562;2022-12-19T03:50:15;101538.56;;;-1.82;96.04
62333;BME280;48624;49.812;8.562;2022-12-19T03:52:56;101537.69;;;-1.79;95.84
62333;BME280;48624;49.812;8.562;2022-12-19T03:55:30;101536.84;;;-1.81;95.48
62333;BME280;48624;49.812;8.562;2022-12-19T03:58:08;101541.16;;;-1.72;95.48
62333;BME280;48624;49.812;8.562;2022-12-19T04:00:36;101538.56;;;-1.78;96.93
62333;BME280;48624;49.812;8.562;2022-12-19T04:03:05;101546.34;;;-1.97;97.21
62333;BME280;48624;49.812;8.562;2022-12-19T04:05:32;101534.22;;;-2.00;98.18
62333;BME280;48624;49.812;8.562;2022-12-19T04:08:02;101542.03;;;-1.81;98.36
62333;BME280;48624;49.812;8.562;2022-12-19T04:10:34;101535.97;;;-1.75;97.20
62333;BME280;48624;49.812;8.562;2022-12-19T04:13:14;101535.97;;;-1.78;97.13
62333;BME280;48624;49.812;8.562;2022-12-19T04:15:52;101529.91;;;-1.62;97.04
62333;BME280;48624;49.812;8.562;2022-12-19T04:18:22;101534.25;;;-1.48;96.45
62333;BME280;48624;49.812;8.562;2022-12-19T04:21:02;101542.06;;;-1.61;95.55
62333;BME280;48624;49.812;8.562;2022-12-19T04:23:34;101541.19;;;-1.46;96.04
62333;BME280;48624;49.812;8.562;2022-12-19T04:26:04;101550.72;;;-1.37;95.46
62333;BME280;48624;49.812;8.562;2022-12-19T04:28:33;101533.38;;;-1.35;95.62
62333;BME280;48624;49.812;8.562;2022-12-19T04:31:00;101530.75;;;-1.35;95.13
62333;BME280;48624;49.812;8.562;2022-12-19T04:33:26;101529.88;;;-1.34;94.95
62333;BME280;48624;49.812;8.562;2022-12-19T04:35:51;101522.97;;;-1.32;94.74
62333;BME280;48624;49.812;8.562;2022-12-19T04:38:16;101529.03;;;-1.30;95.16
62333;BME280;48624;49.812;8.562;2022-12-19T04:40:42;101512.56;;;-1.33;95.37
62333;BME280;48624;49.812;8.562;2022-12-19T04:43:08;101514.28;;;-1.28;95.11
62333;BME280;48624;49.812;8.562;2022-12-19T04:45:33;101499.56;;;-1.35;95.33
62333;BME280;48624;49.812;8.562;2022-12-19T04:47:58;101497.00;;;-1.47;95.25
62333;BME280;48624;49.812;8.562;2022-12-19T04:50:25;101494.38;;;-1.43;94.81
62333;BME280;48624;49.812;8.562;2022-12-19T04:52:50;101494.38;;;-1.49;95.06
62333;BME280;48624;49.812;8.562;2022-12-19T04:55:16;101506.53;;;-1.45;95.01
62333;BME280;48624;49.812;8.562;2022-12-19T04:57:41;101496.13;;;-1.57;94.49
62333;BME280;48624;49.812;8.562;2022-12-19T05:00:07;101480.53;;;-1.49;93.65
62333;BME280;48624;49.812;8.562;2022-12-19T05:02:33;101490.06;;;-1.50;94.08
62333;BME280;48624;49.812;8.562;2022-12-19T05:04:59;101488.34;;;-1.45;93.83
62333;BME280;48624;49.812;8.562;2022-12-19T05:07:24;101479.66;;;-1.42;93.88
62333;BME280;48624;49.812;8.562;2022-12-19T05:09:50;101487.47;;;-1.56;94.53
62333;BME280;48624;49.812;8.562;2022-12-19T05:12:15;101487.47;;;-1.44;93.87
62333;BME280;48624;49.812;8.562;2022-12-19T05:14:40;101477.06;;;-1.37;93.96
62333;BME280;48624;49.812;8.562;2022-12-19T05:17:06;101477.06;;;-1.42;94.57
62333;BME280;48624;49.812;8.562;2022-12-19T05:19:31;101488.31;;;-1.32;94.24
62333;BME280;48624;49.812;8.562;2022-12-19T05:21:57;101493.50;;;-1.32;94.04
62333;BME280;48624;49.812;8.562;2022-12-19T05:24:22;101488.31;;;-1.31;94.64
62333;BME280;48624;49.812;8.562;2022-12-19T05:26:49;101493.50;;;-1.28;93.95
62333;BME280;48624;49.812;8.562;2022-12-19T05:29:15;101494.34;;;-1.19;93.59
62333;BME280;48624;49.812;8.562;2022-12-19T05:31:41;101487.47;;;-1.39;94.18
62333;BME280;48624;49.812;8.562;2022-12-19T05:34:06;101479.66;;;-1.45;95.56
62333;BME280;48624;49.812;8.562;2022-12-19T05:36:31;101488.31;;;-1.46;96.43
62333;BME280;48624;49.812;8.562;2022-12-19T05:38:57;101474.41;;;-1.27;95.27
62333;BME280;48624;49.812;8.562;2022-12-19T05:41:22;101490.03;;;-1.27;95.40
62333;BME280;48624;49.812;8.562;2022-12-19T05:43:52;101494.34;;;-1.21;95.07
62333;BME280;48624;49.812;8.562;2022-12-19T05:46:19;101496.03;;;-0.93;94.35
62333;BME280;48624;49.812;8.562;2022-12-19T05:48:45;101487.47;;;-1.42;95.04
62333;BME280;48624;49.812;8.562;2022-12-19T05:51:10;101492.59;;;-1.14;94.67
62333;BME280;48624;49.812;8.562;2022-12-19T05:53:37;101490.00;;;-1.23;95.11
62333;BME280;48624;49.812;8.562;2022-12-19T05:58:35;101492.66;;;-1.33;96.16
62333;BME280;48624;49.812;8.562;2022-12-19T06:01:06;101482.25;;;-1.45;96.79
62333;BME280;48624;49.812;8.562;2022-12-19T06:03:31;101483.97;;;-1.22;96.18
62333;BME280;48624;49.812;8.562;2022-12-19T06:06:00;101482.19;;;-1.19;96.19
62333;BME280;48624;49.812;8.562;2022-12-19T06:08:26;101477.84;;;-1.07;95.40
62333;BME280;48624;49.812;8.562;2022-12-19T06:10:51;101486.56;;;-1.18;95.92
62333;BME280;48624;49.812;8.562;2022-12-19T06:13:17;101484.78;;;-1.08;95.78
62333;BME280;48624;49.812;8.562;2022-12-19T06:15:43;101476.09;;;-1.02;95.60
62333;BME280;48624;49.812;8.562;2022-12-19T06:18:08;101480.47;;;-1.14;95.20
62333;BME280;48624;49.812;8.562;2022-12-19T06:20:33;101476.16;;;-1.30;94.59
62333;BME280;48624;49.812;8.562;2022-12-19T06:22:58;101477.91;;;-1.34;95.50
62333;BME280;48624;49.812;8.562;2022-12-19T06:25:24;101487.38;;;-1.03;94.67
62333;BME280;48624;49.812;8.562;2022-12-19T06:27:49;101488.25;;;-1.07;94.14
62333;BME280;48624;49.812;8.562;2022-12-19T06:30:15;101496.03;;;-0.95;94.06
62333;BME280;48624;49.812;8.562;2022-12-19T06:32:40;101491.72;;;-1.04;94.31
62333;BME280;48624;49.812;8.562;2022-12-19T06:35:06;101489.97;;;-0.99;94.71
62333;BME280;48624;49.812;8.562;2022-12-19T06:37:31;101488.19;;;-0.90;94.69
62333;BME280;48624;49.812;8.562;2022-12-19T06:39:57;101498.56;;;-0.82;94.44
62333;BME280;48624;49.812;8.562;2022-12-19T06:42:22;101482.16;;;-1.00;96.09
62333;BME280;48624;49.812;8.562;2022-12-19T06:44:51;101490.75;;;-0.78;95.19
62333;BME280;48624;49.812;8.562;2022-12-19T06:47:18;101492.50;;;-0.78;94.37
62333;BME280;48624;49.812;8.562;2022-12-19T06:49:43;101490.75;;;-0.70;93.98
62333;BME280;48624;49.812;8.562;2022-12-19T06:52:08;101510.72;;;-0.80;94.67
62333;BME280;48624;49.812;8.562;2022-12-19T06:54:34;101491.66;;;-0.85;96.23
62333;BME280;48624;49.812;8.562;2022-12-19T06:57:02;101489.88;;;-0.77;95.79
62333;BME280;48624;49.812;8.562;2022-12-19T06:59:27;101495.94;;;-0.72;96.49
62333;BME280;48624;49.812;8.562;2022-12-19T07:01:57;101493.38;;;-0.81;96.63
62333;BME280;48624;49.812;8.562;2022-12-19T07:04:38;101492.53;;;-0.91;96.93
62333;BME280;48624;49.812;8.562;2022-12-19T07:07:06;101484.81;;;-1.23;97.91
62333;BME280;48624;49.812;8.562;2022-12-19T07:09:33;101477.78;;;-0.87;98.01
62333;BME280;48624;49.812;8.562;2022-12-19T07:12:00;101464.78;;;-0.89;97.04
62333;BME280;48624;49.812;8.562;2022-12-19T07:14:26;101471.69;;;-0.85;97.29
62333;BME280;48624;49.812;8.562;2022-12-19T07:16:53;101462.03;;;-0.59;95.66
62333;BME280;48624;49.812;8.562;2022-12-19T07:19:19;101475.13;;;-0.72;96.13
62333;BME280;48624;49.812;8.562;2022-12-19T07:21:47;101464.66;;;-0.64;96.11
62333;BME280;48624;49.812;8.562;2022-12-19T07:24:14;101465.59;;;-0.71;96.59
62333;BME280;48624;49.812;8.562;2022-12-19T07:26:40;101466.41;;;-0.61;96.15
62333;BME280;48624;49.812;8.562;2022-12-19T07:29:07;101462.94;;;-0.63;96.40
62333;BME280;48624;49.812;8.562;2022-12-19T07:31:33;101461.16;;;-0.58;96.55
62333;BME280;48624;49.812;8.562;2022-12-19T07:33:59;101462.09;;;-0.72;96.83
62333;BME280;48624;49.812;8.562;2022-12-19T07:36:24;101459.47;;;-0.62;96.80
62333;BME280;48624;49.812;8.562;2022-12-19T07:38:49;101457.72;;;-0.63;97.31
62333;BME280;48624;49.812;8.562;2022-12-19T07:41:15;101462.00;;;-0.48;96.53
62333;BME280;48624;49.812;8.562;2022-12-19T07:43:40;101462.78;;;-0.38;96.49
62333;BME280;48624;49.812;8.562;2022-12-19T07:46:06;101468.88;;;-0.39;95.85
62333;BME280;48624;49.812;8.562;2022-12-19T07:48:31;101464.50;;;-0.34;95.24
62333;BME280;48624;49.812;8.562;2022-12-19T07:50:57;101479.25;;;-0.27;95.48
62333;BME280;48624;49.812;8.562;2022-12-19T07:53:22;101468.00;;;-0.37;95.76
62333;BME280;48624;49.812;8.562;2022-12-19T07:55:51;101476.75;;;-0.52;96.69
62333;BME280;48624;49.812;8.562;2022-12-19T07:58:17;101482.03;;;-0.64;99.05
62333;BME280;48624;49.812;8.562;2022-12-19T08:00:42;101492.34;;;-0.49;97.87
62333;BME280;48624;49.812;8.562;2022-12-19T08:03:07;101492.38;;;-0.50;97.20
62333;BME280;48624;49.812;8.562;2022-12-19T08:05:33;101481.06;;;-0.45;96.56
62333;BME280;48624;49.812;8.562;2022-12-19T08:07:58;101475.06;;;-0.64;98.24
62333;BME280;48624;49.812;8.562;2022-12-19T08:10:23;101485.50;;;-0.67;98.94
62333;BME280;48624;49.812;8.562;2022-12-19T08:12:49;101489.88;;;-0.69;98.90
62333;BME280;48624;49.812;8.562;2022-12-19T08:15:14;101490.66;;;-0.51;98.97
62333;BME280;48624;49.812;8.562;2022-12-19T08:17:40;101487.25;;;-0.71;98.69
62333;BME280;48624;49.812;8.562;2022-12-19T08:20:06;101484.63;;;-0.64;100.00
62333;BME280;48624;49.812;8.562;2022-12-19T08:22:32;101484.59;;;-0.57;99.11
62333;BME280;48624;49.812;8.562;2022-12-19T08:24:57;101484.59;;;-0.57;100.00
62333;BME280;48624;49.812;8.562;2022-12-19T08:27:23;101480.06;;;-0.22;99.17
62333;BME280;48624;49.812;8.562;2022-12-19T08:29:49;101471.41;;;-0.29;98.45
62333;BME280;48624;49.812;8.562;2022-12-19T08:32:15;101454.16;;;-0.42;99.17
62333;BME280;48624;49.812;8.562;2022-12-19T08:34:40;101447.00;;;-0.15;97.53
62333;BME280;48624;49.812;8.562;2022-12-19T08:37:06;101454.59;;;0.18;96.42
62333;BME280;48624;49.812;8.562;2022-12-19T08:39:32;101455.81;;;-0.33;98.72
62333;BME280;48624;49.812;8.562;2022-12-19T08:41:58;101456.75;;;-0.44;99.39
62333;BME280;48624;49.812;8.562;2022-12-19T08:44:25;101470.53;;;-0.26;99.29
62333;BME280;48624;49.812;8.562;2022-12-19T08:46:50;101456.72;;;-0.39;100.00
62333;BME280;48624;49.812;8.562;2022-12-19T08:49:16;101459.22;;;-0.20;99.21
62333;BME280;48624;49.812;8.562;2022-12-19T08:51:42;101438.28;;;-0.05;98.70
62333;BME280;48624;49.812;8.562;2022-12-19T08:54:07;101454.00;;;-0.19;98.13
62333;BME280;48624;49.812;8.562;2022-12-19T08:56:34;101450.59;;;-0.27;98.79
62333;BME280;48624;49.812;8.562;2022-12-19T08:58:59;101453.09;;;-0.16;100.00
62333;BME280;48624;49.812;8.562;2022-12-19T09:01:25;101453.94;;;-0.12;99.99
62333;BME280;48624;49.812;8.562;2022-12-19T09:03:50;101452.22;;;-0.12;99.83
62333;BME280;48624;49.812;8.562;2022-12-19T09:06:16;101461.66;;;0.02;99.49
62333;BME280;48624;49.812;8.562;2022-12-19T09:08:42;101466.81;;;0.09;98.94
62333;BME280;48624;49.812;8.562;2022-12-19T09:11:11;101458.22;;;0.01;98.98
62333;BME280;48624;49.812;8.562;2022-12-19T09:13:37;101464.97;;;0.22;98.91
62333;BME280;48624;49.812;8.562;2022-12-19T09:16:13;101469.47;;;0.03;99.28
62333;BME280;48624;49.812;8.562;2022-12-19T09:18:40;101470.97;;;0.32;98.41
62333;BME280;48624;49.812;8.562;2022-12-19T09:21:06;101461.56;;;0.16;99.76
62333;BME280;48624;49.812;8.562;2022-12-19T09:23:32;101457.94;;;0.34;99.27
62333;BME280;48624;49.812;8.562;2022-12-19T09:26:04;101451.81;;;0.39;98.87
62333;BME280;48624;49.812;8.562;2022-12-19T09:28:30;101454.47;;;0.33;98.71
62333;BME280;48624;49.812;8.562;2022-12-19T09:30:57;101455.31;;;0.37;98.45
62333;BME280;48624;49.812;8.562;2022-12-19T09:33:24;101448.31;;;0.37;98.26
62333;BME280;48624;49.812;8.562;2022-12-19T09:35:51;101451.06;;;0.26;99.69
62333;BME280;48624;49.812;8.562;2022-12-19T09:38:18;101455.50;;;0.12;100.00
62333;BME280;48624;49.812;8.562;2022-12-19T09:43:38;101477.22;;;0.09;99.51
62333;BME280;48624;49.812;8.562;2022-12-19T09:46:26;101453.41;;;0.51;99.23
62333;BME280;48624;49.812;8.562;2022-12-19T09:48:56;101460.47;;;0.40;98.03
62333;BME280;48624;49.812;8.562;2022-12-19T09:51:47;101462.28;;;0.32;97.13
62333;BME280;48624;49.812;8.562;2022-12-19T09:54:21;101474.44;;;0.34;97.76
62333;BME280;48624;49.812;8.562;2022-12-19T09:56:54;101473.06;;;-0.12;100.00
62333;BME280;48624;49.812;8.562;2022-12-19T09:59:33;101470.09;;;0.35;100.00
62333;BME280;48624;49.812;8.562;2022-12-19T10:04:46;101450.03;;;0.43;99.45
62333;BME280;48624;49.812;8.562;2022-12-19T10:07:14;101438.56;;;0.61;99.19
62333;BME280;48624;49.812;8.562;2022-12-19T10:09:41;101442.59;;;0.89;96.26
62333;BME280;48624;49.812;8.562;2022-12-19T10:12:41;101422.94;;;0.58;97.57
62333;BME280;48624;49.812;8.562;2022-12-19T10:18:02;101428.81;;;0.79;96.95
62333;BME280;48624;49.812;8.562;2022-12-19T10:20:40;101418.44;;;0.71;97.16
62333;BME280;48624;49.812;8.562;2022-12-19T10:25:58;101429.94;;;0.53;98.67
62333;BME280;48624;49.812;8.562;2022-12-19T10:28:48;101420.25;;;0.66;97.06
62333;BME280;48624;49.812;8.562;2022-12-19T10:31:32;101414.94;;;0.74;97.67
62333;BME280;48624;49.812;8.562;2022-12-19T10:34:20;101421.13;;;0.65;98.38
62333;BME280;48624;49.812;8.562;2022-12-19T10:36:53;101411.94;;;1.06;96.87
62333;BME280;48624;49.812;8.562;2022-12-19T10:39:34;101418.16;;;0.96;97.21
62333;BME280;48624;49.812;8.562;2022-12-19T10:42:14;101415.53;;;0.98;97.48
62333;BME280;48624;49.812;8.562;2022-12-19T10:44:42;101419.19;;;0.81;98.11
62333;BME280;48624;49.812;8.562;2022-12-19T10:47:14;101415.97;;;0.60;99.57
62333;BME280;48624;49.812;8.562;2022-12-19T10:49:40;101422.06;;;0.58;100.00
62333;BME280;48624;49.812;8.562;2022-12-19T10:52:08;101410.19;;;0.27;100.00
62333;BME280;48624;49.812;8.562;2022-12-19T10:57:25;101408.63;;;0.10;100.00
62333;BME280;48624;49.812;8.562;2022-12-19T10:59:58;101401.41;;;0.37;100.00
62333;BME280;48624;49.812;8.562;2022-12-19T11:02:44;101396.13;;;0.44;100.00
62333;BME280;48624;49.812;8.562;2022-12-19T11:05:29;101396.94;;;0.50;100.00
62333;BME280;48624;49.812;8.562;2022-12-19T11:10:41;101386.50;;;0.50;100.00
62333;BME280;48624;49.812;8.562;2022-12-19T11:15:48;101386.44;;;0.58;100.00
62333;BME280;48624;49.812;8.562;2022-12-19T11:18:13;101383.75;;;0.64;100.00
62333;BME280;48624;49.812;8.562;2022-12-19T11:20:53;101374.06;;;0.74;100.00
62333;BME280;48624;49.812;8.562;2022-12-19T11:23:19;101369.69;;;0.75;100.00
62333;BME280;48624;49.812;8.562;2022-12-19T11:25:52;101361.75;;;0.84;100.00
62333;BME280;48624;49.812;8.562;2022-12-19T11:31:02;101376.22;;;1.12;100.00
62333;BME280;48624;49.812;8.562;2022-12-19T11:33:29;101368.56;;;0.98;100.00
62333;BME280;48624;49.812;8.562;2022-12-19T11:35:56;101372.06;;;0.96;100.00
62333;BME280;48624;49.812;8.562;2022-12-19T11:38:47;101355.81;;;0.74;100.00
62333;BME280;48624;49.812;8.562;2022-12-19T11:41:31;101356.38;;;0.98;100.00
62333;BME280;48624;49.812;8.562;2022-12-19T11:44:10;101352.94;;;0.94;100.00
62333;BME280;48624;49.812;8.562;2022-12-19T11:46:46;101351.38;;;0.81;100.00
62333;BME280;48624;49.812;8.562;2022-12-19T11:49:34;101354.75;;;0.88;100.00
62333;BME280;48624;49.812;8.562;2022-12-19T11:52:48;101346.09;;;0.84;100.00
62333;BME280;48624;49.812;8.562;2022-12-19T11:55:25;101347.03;;;0.80;100.00
62333;BME280;48624;49.812;8.562;2022-12-19T11:57:53;101347.03;;;0.80;100.00
62333;BME280;48624;49.812;8.562;2022-12-19T12:00:21;101348.59;;;0.93;100.00
62333;BME280;48624;49.812;8.562;2022-12-19T12:05:44;101334.72;;;0.93;100.00
62333;BME280;48624;49.812;8.562;2022-12-19T12:11:24;101338.16;;;0.95;100.00
62333;BME280;48624;49.812;8.562;2022-12-19T12:27:42;101308.63;;;0.19;100.00
62333;BME280;48624;49.812;8.562;2022-12-19T12:30:16;101303.88;;;0.55;100.00
62333;BME280;48624;49.812;8.562;2022-12-19T12:35:34;101289.97;;;0.57;100.00
62333;BME280;48624;49.812;8.562;2022-12-19T12:38:26;101297.84;;;0.52;100.00
62333;BME280;48624;49.812;8.562;2022-12-19T12:41:10;101291.66;;;0.59;100.00
62333;BME280;48624;49.812;8.562;2022-12-19T12:46:33;101292.25;;;0.80;100.00
62333;BME280;48624;49.812;8.562;2022-12-19T12:49:05;101292.06;;;0.95;100.00
62333;BME280;48624;49.812;8.562;2022-12-19T12:51:32;101297.72;;;0.60;100.00
62333;BME280;48624;49.812;8.562;2022-12-19T12:54:11;101290.72;;;0.63;100.00
62333;BME280;48624;49.812;8.562;2022-12-19T12:56:38;101291.03;;;1.06;100.00
62333;BME280;48624;49.812;8.562;2022-12-19T12:59:21;101290.66;;;1.31;100.00
62333;BME280;48624;49.812;8.562;2022-12-19T13:01:49;101284.53;;;1.32;100.00
62333;BME280;48624;49.812;8.562;2022-12-19T13:04:23;101289.22;;;1.11;100.00
62333;BME280;48624;49.812;8.562;2022-12-19T13:12:23;101282.47;;;0.98;100.00
62333;BME280;48624;49.812;8.562;2022-12-19T13:15:31;101280.31;;;1.24;100.00
62333;BME280;48624;49.812;8.562;2022-12-19T13:20:41;101278.59;;;1.23;100.00
62333;BME280;48624;49.812;8.562;2022-12-19T13:23:22;101277.13;;;1.04;100.00
62333;BME280;48624;49.812;8.562;2022-12-19T13:25:52;101277.72;;;1.24;100.00
62333;BME280;48624;49.812;8.562;2022-12-19T13:28:37;101267.38;;;1.17;100.00
62333;BME280;48624;49.812;8.562;2022-12-19T13:36:50;101281.91;;;1.33;100.00
62333;BME280;48624;49.812;8.562;2022-12-19T13:42:10;101281.25;;;1.20;100.00
62333;BME280;48624;49.812;8.562;2022-12-19T13:44:57;101283.75;;;1.27;100.00
62333;BME280;48624;49.812;8.562;2022-12-19T13:47:30;101282.88;;;1.29;100.00
62333;BME280;48624;49.812;8.562;2022-12-19T13:49:57;101275.19;;;1.18;100.00
62333;BME280;48624;49.812;8.562;2022-12-19T13:52:22;101270.72;;;1.27;100.00
62333;BME280;48624;49.812;8.562;2022-12-19T13:54:50;101279.09;;;0.89;100.00
62333;BME280;48624;49.812;8.562;2022-12-19T13:59:48;101279.66;;;1.10;100.00
62333;BME280;48624;49.812;8.562;2022-12-19T14:02:30;101287.47;;;1.10;100.00
62333;BME280;48624;49.812;8.562;2022-12-19T14:04:56;101279.81;;;0.99;100.00
62333;BME280;48624;49.812;8.562;2022-12-19T14:07:38;101286.03;;;0.92;100.00
62333;BME280;48624;49.812;8.562;2022-12-19T14:10:13;101284.75;;;1.18;100.00
62333;BME280;48624;49.812;8.562;2022-12-19T14:12:42;101280.53;;;1.09;100.00
62333;BME280;48624;49.812;8.562;2022-12-19T14:15:36;101271.84;;;1.08;100.00
62333;BME280;48624;49.812;8.562;2022-12-19T14:20:45;101266.25;;;1.33;100.00
62333;BME280;48624;49.812;8.562;2022-12-19T14:23:11;101257.00;;;1.12;100.00
62333;BME280;48624;49.812;8.562;2022-12-19T14:25:41;101255.13;;;1.20;100.00
62333;BME280;48624;49.812;8.562;2022-12-19T14:28:12;101254.16;;;1.29;100.00
62333;BME280;48624;49.812;8.562;2022-12-19T14:30:44;101248.78;;;1.37;100.00
62333;BME280;48624;49.812;8.562;2022-12-19T14:33:18;101255.91;;;1.27;100.00
62333;BME280;48624;49.812;8.562;2022-12-19T14:35:51;101262.94;;;1.23;100.00
62333;BME280;48624;49.812;8.562;2022-12-19T14:38:19;101271.75;;;1.16;100.00
62333;BME280;48624;49.812;8.562;2022-12-19T14:40:46;101271.59;;;1.26;100.00